Time;durP1;ratioP1;P1;durP2;ratioP2;P2;SDS_P1;SDS_P2;PMS_P1;PMS_P2;Temp;Humidity;BMP_temperature;BMP_pressure;BME280_temperature;BME280_humidity;BME280_pressure;Samples;Min_cycle;Max_cycle;Signal;HPM_P1;HPM_P2
2022/08/14 00:01:57;;;;;;;;;9.25;9.00;;;;;24.98;50.32;101227.94;5049858;28;8955;-65
2022/08/14 00:04:27;;;;;;;;;9.00;9.00;;;;;24.93;50.04;101230.72;5049325;28;8821;-64
2022/08/14 00:07:05;;;;;;;;;10.25;10.25;;;;;24.91;49.77;101232.91;5050088;28;8845;-64
2022/08/14 00:09:34;;;;;;;;;13.50;12.00;;;;;24.87;49.66;101226.31;5049792;28;8830;-64
2022/08/14 00:12:20;;;;;;;;;10.75;10.75;;;;;24.85;49.66;101223.03;5048032;28;8827;-64
2022/08/14 00:14:51;;;;;;;;;9.00;9.00;;;;;24.81;49.51;101220.00;5050065;28;8833;-64
2022/08/14 00:17:21;;;;;;;;;11.00;11.00;;;;;24.79;49.25;101222.19;5051154;28;8811;-64
2022/08/14 00:19:47;;;;;;;;;9.00;9.00;;;;;24.78;49.09;101217.00;5054077;28;8862;-64
2022/08/14 00:22:17;;;;;;;;;9.50;9.50;;;;;24.77;48.83;101215.34;5057223;28;8856;-64
2022/08/14 00:25:06;;;;;;;;;11.75;9.75;;;;;24.76;48.75;101213.69;5046233;28;9564;-64
2022/08/14 00:27:32;;;;;;;;;11.00;10.50;;;;;24.77;48.58;101209.84;5049260;28;8852;-64
2022/08/14 00:30:09;;;;;;;;;9.25;9.25;;;;;24.78;48.24;101206.78;5052396;28;8853;-64
2022/08/14 00:32:37;;;;;;;;;12.75;12.75;;;;;24.74;47.88;101202.13;5052508;28;8825;-64
2022/08/14 00:35:23;;;;;;;;;15.50;13.00;;;;;24.71;47.79;101195.25;5053426;28;8980;-64
2022/08/14 00:38:10;;;;;;;;;14.25;13.25;;;;;24.72;47.93;101196.91;5033826;28;8927;-64
2022/08/14 00:40:37;;;;;;;;;10.75;10.75;;;;;24.73;47.96;101187.53;5038079;28;8851;-63
2022/08/14 00:43:05;;;;;;;;;11.00;11.00;;;;;24.75;47.57;101185.31;5058895;28;8826;-65
2022/08/14 00:45:31;;;;;;;;;9.25;9.25;;;;;24.78;47.35;101182.00;5049344;28;8875;-65
2022/08/14 00:47:58;;;;;;;;;13.25;12.25;;;;;24.78;46.98;101184.75;5053199;28;8823;-64
2022/08/14 00:50:28;;;;;;;;;12.50;11.50;;;;;24.78;46.79;101179.25;5053133;28;8834;-64
2022/08/14 00:52:55;;;;;;;;;10.25;10.25;;;;;24.75;46.67;101176.25;5053784;28;9537;-65
2022/08/14 00:55:22;;;;;;;;;13.50;13.25;;;;;24.71;46.63;101181.47;5053214;28;8854;-65
2022/08/14 00:58:29;;;;;;;;;13.75;13.00;;;;;24.71;46.58;101173.22;5053168;28;8845;-65
2022/08/14 01:00:36;;;;;;;;;13.25;12.75;;;;;24.71;46.43;101162.22;5052838;28;8840;-64
2022/08/14 01:03:18;;;;;;;;;13.00;12.25;;;;;24.72;46.70;101163.06;5053378;28;8817;-65
2022/08/14 01:05:48;;;;;;;;;12.00;10.75;;;;;24.67;46.72;101173.00;5052826;28;8851;-65
2022/08/14 01:08:20;;;;;;;;;11.75;11.75;;;;;24.68;46.70;101171.06;5055438;28;8849;-65
2022/08/14 01:11:07;;;;;;;;;12.25;12.25;;;;;24.68;46.97;101157.28;5052560;28;8826;-64
2022/08/14 01:13:39;;;;;;;;;12.75;11.75;;;;;24.66;46.93;101157.56;5053364;28;8847;-65
2022/08/14 01:16:12;;;;;;;;;11.50;10.75;;;;;24.64;47.20;101156.19;5053096;28;8980;-65
2022/08/14 01:21:39;;;;;;;;;11.75;11.25;;;;;24.53;47.40;101146.31;5053035;28;8950;-64
2022/08/14 01:24:20;;;;;;;;;13.00;11.00;;;;;24.52;47.10;101150.19;5055496;28;8850;-64
2022/08/14 01:26:56;;;;;;;;;12.00;11.75;;;;;24.49;47.79;101137.81;5053360;28;8952;-64
2022/08/14 01:29:27;;;;;;;;;12.00;11.50;;;;;24.46;47.85;101143.03;5066844;28;8825;-64
2022/08/14 01:32:14;;;;;;;;;11.50;11.50;;;;;24.40;48.08;101136.72;5050674;28;9595;-64
2022/08/14 01:34:53;;;;;;;;;12.25;12.25;;;;;24.36;48.40;101132.88;5052585;28;8821;-64
2022/08/14 01:37:45;;;;;;;;;13.75;12.00;;;;;24.31;48.54;101124.63;5032815;28;8939;-64
2022/08/14 01:40:27;;;;;;;;;10.75;10.50;;;;;24.28;48.65;101120.50;5051229;28;8852;-65
2022/08/14 01:43:06;;;;;;;;;12.00;11.50;;;;;24.25;48.72;101117.47;5032947;28;8813;-65
2022/08/14 01:45:33;;;;;;;;;13.00;10.25;;;;;24.21;48.77;101114.47;5036434;28;8835;-65
2022/08/14 01:48:07;;;;;;;;;11.50;11.50;;;;;24.20;49.03;101117.50;5052460;28;8823;-65
2022/08/14 01:50:41;;;;;;;;;11.25;11.25;;;;;24.18;49.02;101117.75;5050756;28;8834;-65
2022/08/14 01:53:08;;;;;;;;;10.25;10.25;;;;;24.16;48.99;101118.06;5052560;28;8818;-65
2022/08/14 01:55:37;;;;;;;;;13.25;13.25;;;;;24.13;49.17;101109.53;5053106;28;8861;-65
2022/08/14 01:58:05;;;;;;;;;15.00;13.25;;;;;24.11;49.24;101114.50;5032795;28;8812;-65
2022/08/14 02:00:53;;;;;;;;;10.25;9.50;;;;;24.11;49.17;101109.81;5036824;28;8833;-65
2022/08/14 02:03:29;;;;;;;;;12.25;12.25;;;;;24.11;49.48;101101.56;5047130;28;9653;-65
2022/08/14 02:06:01;;;;;;;;;10.75;10.75;;;;;24.11;49.30;101103.50;5051797;28;8849;-65
2022/08/14 02:08:48;;;;;;;;;10.00;10.00;;;;;24.06;49.29;101097.97;5056533;28;8813;-65
2022/08/14 02:11:22;;;;;;;;;11.50;11.25;;;;;24.06;49.50;101101.56;5051026;28;8839;-65
2022/08/14 02:13:55;;;;;;;;;10.75;10.75;;;;;24.06;49.49;101100.72;5051836;28;8903;-65
2022/08/14 02:16:24;;;;;;;;;10.50;10.00;;;;;24.05;49.30;101090.84;5051972;28;8934;-65
2022/08/14 02:18:55;;;;;;;;;10.25;10.25;;;;;24.05;49.58;101090.84;5052000;28;8808;-65
2022/08/14 02:21:21;;;;;;;;;10.50;10.25;;;;;24.04;49.25;101087.28;5051900;28;8936;-65
2022/08/14 02:23:50;;;;;;;;;11.75;10.75;;;;;24.02;49.25;101091.41;5058126;28;8814;-65
2022/08/14 02:26:36;;;;;;;;;11.00;11.00;;;;;24.03;49.32;101095.81;5052039;28;8835;-65
2022/08/14 02:29:26;;;;;;;;;15.00;13.75;;;;;24.01;49.39;101098.00;5051054;28;8806;-65
2022/08/14 02:32:15;;;;;;;;;9.75;9.75;;;;;23.97;49.58;101103.22;5065181;28;8960;-65
2022/08/14 02:35:05;;;;;;;;;11.00;11.00;;;;;23.92;49.81;101095.00;5052101;28;8842;-65
2022/08/14 02:37:32;;;;;;;;;10.25;10.00;;;;;23.89;49.79;101090.03;5050904;28;8944;-65
2022/08/14 02:40:14;;;;;;;;;11.50;10.00;;;;;23.84;49.94;101088.13;5050710;28;8830;-65
2022/08/14 02:42:42;;;;;;;;;12.00;11.50;;;;;23.83;49.99;101096.66;5051313;28;9518;-65
2022/08/14 02:45:32;;;;;;;;;12.00;11.00;;;;;23.80;50.11;101084.28;5033359;28;8870;-65
2022/08/14 02:48:12;;;;;;;;;13.00;13.00;;;;;23.78;50.49;101080.16;5051101;28;8819;-65
2022/08/14 02:50:59;;;;;;;;;16.00;14.00;;;;;23.72;50.61;101090.34;5037485;28;8864;-65
2022/08/14 02:53:26;;;;;;;;;16.25;14.75;;;;;23.67;50.55;101077.44;5061154;28;8941;-65
2022/08/14 02:55:55;;;;;;;;;15.75;13.75;;;;;23.64;50.70;101088.13;5051161;28;8849;-65
2022/08/14 02:58:29;;;;;;;;;14.00;14.00;;;;;23.61;50.93;101083.16;5053438;28;8809;-65
2022/08/14 03:00:58;;;;;;;;;12.00;10.25;;;;;23.57;50.93;101082.88;5049426;28;8823;-65
2022/08/14 03:03:26;;;;;;;;;17.50;14.75;;;;;23.55;51.12;101073.28;5051431;28;8814;-65
2022/08/14 03:05:57;;;;;;;;;15.00;15.00;;;;;23.50;51.08;101074.13;5050194;28;8865;-65
2022/08/14 03:08:26;;;;;;;;;13.00;13.00;;;;;23.47;51.21;101076.59;5045512;28;8818;-64
2022/08/14 03:10:54;;;;;;;;;12.75;12.75;;;;;23.43;51.36;101068.06;5065487;28;8907;-66
2022/08/14 03:13:22;;;;;;;;;14.75;14.00;;;;;23.43;51.47;101071.63;5051159;28;8944;-65
2022/08/14 03:15:52;;;;;;;;;10.75;9.25;;;;;23.44;51.29;101066.97;5050602;28;8934;-65
2022/08/14 03:18:23;;;;;;;;;12.00;12.00;;;;;23.45;51.47;101063.09;5050390;28;9652;-65
2022/08/14 03:21:00;;;;;;;;;12.25;12.25;;;;;23.42;51.46;101063.69;5051082;28;9626;-65
2022/08/14 03:23:34;;;;;;;;;15.25;14.75;;;;;23.42;51.45;101066.44;5055665;28;9484;-64
2022/08/14 03:26:07;;;;;;;;;10.25;10.25;;;;;23.43;51.65;101068.06;5044159;28;8842;-65
2022/08/14 03:28:33;;;;;;;;;11.25;10.25;;;;;23.42;51.45;101063.69;5050100;28;8834;-64
2022/08/14 03:31:06;;;;;;;;;15.50;13.00;;;;;23.41;51.49;101057.34;5050736;28;9625;-65
2022/08/14 03:33:36;;;;;;;;;15.75;15.00;;;;;23.40;51.65;101052.94;5050684;28;8815;-65
2022/08/14 03:36:11;;;;;;;;;10.50;9.75;;;;;23.37;51.75;101050.75;5052682;28;9637;-65
2022/08/14 03:38:58;;;;;;;;;12.75;10.75;;;;;23.34;51.89;101056.81;5049798;28;8854;-65
2022/08/14 03:41:45;;;;;;;;;15.25;13.75;;;;;23.31;51.84;101053.78;5049065;28;9651;-65
2022/08/14 03:44:12;;;;;;;;;12.75;12.75;;;;;23.27;51.96;101049.94;5050737;28;8810;-65
2022/08/14 03:46:58;;;;;;;;;13.75;13.75;;;;;23.23;52.04;101049.66;5047925;28;8959;-65
2022/08/14 03:49:28;;;;;;;;;13.25;13.25;;;;;23.20;52.00;101039.19;5050563;28;9817;-65
2022/08/14 03:51:57;;;;;;;;;14.25;11.50;;;;;23.16;51.99;101038.09;5052753;28;8818;-65
2022/08/14 03:54:26;;;;;;;;;15.00;13.25;;;;;23.14;52.00;101046.63;5050427;28;8822;-66
2022/08/14 03:56:53;;;;;;;;;12.50;12.50;;;;;23.10;52.04;101051.00;5049684;28;8837;-65
2022/08/14 03:59:19;;;;;;;;;17.00;15.25;;;;;23.08;51.99;101044.97;5050466;28;9534;-65
2022/08/14 04:01:48;;;;;;;;;15.75;15.75;;;;;23.02;52.24;101037.81;5035266;28;8958;-65
2022/08/14 04:04:30;;;;;;;;;14.00;12.75;;;;;23.00;52.28;101039.19;5030915;28;8858;-65
2022/08/14 04:06:58;;;;;;;;;11.50;10.00;;;;;22.97;52.24;101035.09;5049873;28;8967;-65
2022/08/14 04:09:26;;;;;;;;;12.75;10.25;;;;;22.96;52.21;101044.41;5049989;28;8901;-65
2022/08/14 04:11:53;;;;;;;;;14.75;13.25;;;;;22.94;52.35;101039.19;5050172;28;8836;-65
2022/08/14 04:14:22;;;;;;;;;14.25;11.50;;;;;22.93;52.17;101039.47;5053858;28;8830;-65
2022/08/14 04:16:49;;;;;;;;;13.50;13.00;;;;;22.90;52.39;101037.22;5049395;28;9513;-65
2022/08/14 04:19:19;;;;;;;;;12.75;12.75;;;;;22.88;52.22;101037.47;5048989;28;8896;-65
2022/08/14 04:21:47;;;;;;;;;11.50;10.50;;;;;22.86;52.31;101034.19;5049613;28;8826;-65
2022/08/14 04:24:31;;;;;;;;;13.25;12.75;;;;;22.82;52.39;101030.34;5049084;28;8826;-64
2022/08/14 04:27:12;;;;;;;;;14.25;13.50;;;;;22.79;52.60;101027.31;5049866;28;8862;-66
2022/08/14 04:29:42;;;;;;;;;14.75;14.00;;;;;22.74;52.67;101030.06;5049181;28;8826;-65
2022/08/14 04:32:11;;;;;;;;;11.75;11.75;;;;;22.71;52.89;101034.16;5049729;28;8830;-65
2022/08/14 04:35:01;;;;;;;;;12.00;10.75;;;;;22.68;52.75;101032.75;5049887;28;9640;-66
2022/08/14 04:46:15;;;;;;;;;15.50;13.75;;;;;22.62;53.00;101027.56;5064968;28;8913;-65
2022/08/14 04:49:04;;;;;;;;;11.75;11.75;;;;;22.60;53.16;101024.25;5049799;28;9626;-65
2022/08/14 04:51:33;;;;;;;;;12.75;12.75;;;;;22.60;53.13;101030.56;5048201;28;8895;-65
2022/08/14 04:54:20;;;;;;;;;12.00;12.00;;;;;22.61;52.95;101034.97;5044178;28;8887;-65
2022/08/14 04:56:49;;;;;;;;;15.00;14.75;;;;;22.60;52.89;101027.81;5056061;28;8823;-65
2022/08/14 04:59:20;;;;;;;;;12.50;12.50;;;;;22.62;52.96;101027.56;5049669;28;8816;-65
2022/08/14 05:01:47;;;;;;;;;13.25;12.75;;;;;22.62;53.02;101028.38;5049983;23;8873;-65
2022/08/14 05:04:21;;;;;;;;;18.00;14.75;;;;;22.63;53.20;101023.72;5031949;28;8833;-65
2022/08/14 05:06:50;;;;;;;;;16.75;15.00;;;;;22.64;53.00;101028.09;5034225;28;8927;-64
2022/08/14 05:09:19;;;;;;;;;12.75;12.75;;;;;22.67;52.81;101024.81;5034349;28;8841;-65
2022/08/14 05:11:47;;;;;;;;;17.00;15.50;;;;;22.67;53.06;101016.59;5027176;28;8812;-65
2022/08/14 05:14:13;;;;;;;;;11.75;10.00;;;;;22.67;52.88;101017.41;5034112;28;8963;-65
2022/08/14 05:16:59;;;;;;;;;14.25;14.00;;;;;22.69;53.10;101020.72;5029728;28;8821;-65
2022/08/14 05:19:28;;;;;;;;;14.75;14.00;;;;;22.70;53.48;101018.78;5033529;28;8817;-65
2022/08/14 05:21:57;;;;;;;;;10.75;10.75;;;;;22.69;53.30;101011.66;5033897;28;8903;-65
2022/08/14 05:24:43;;;;;;;;;12.25;11.00;;;;;22.71;53.46;101006.72;5026438;28;8827;-65
2022/08/14 05:27:09;;;;;;;;;14.75;14.75;;;;;22.72;53.54;101002.88;5026952;28;8843;-65
2022/08/14 05:29:36;;;;;;;;;10.00;10.00;;;;;22.72;53.45;101005.59;5033794;28;8844;-66
2022/08/14 05:32:06;;;;;;;;;13.00;11.00;;;;;22.72;53.31;101002.88;5033382;28;8936;-65
2022/08/14 05:34:32;;;;;;;;;13.50;12.50;;;;;22.74;53.25;101002.63;5033399;28;8947;-65
2022/08/14 05:37:01;;;;;;;;;13.75;13.75;;;;;22.76;53.37;100994.91;5045520;28;8871;-65
2022/08/14 05:39:29;;;;;;;;;12.50;12.00;;;;;22.73;53.15;100996.31;5050415;28;8915;-65
2022/08/14 05:41:56;;;;;;;;;14.25;14.25;;;;;22.72;53.35;100994.63;5030260;28;8833;-65
2022/08/14 05:44:23;;;;;;;;;14.25;13.50;;;;;22.75;53.00;100990.53;5027972;28;8961;-65
2022/08/14 05:46:56;;;;;;;;;14.25;11.25;;;;;22.79;53.11;100994.38;5035156;28;8853;-65
2022/08/14 05:49:22;;;;;;;;;14.75;13.75;;;;;22.80;53.23;100988.59;5033613;28;8821;-64
2022/08/14 05:51:59;;;;;;;;;17.25;16.25;;;;;22.79;53.10;100980.66;5035851;28;11181;-65
2022/08/14 05:54:28;;;;;;;;;11.75;11.75;;;;;22.83;53.01;100988.06;5032481;28;8829;-67
2022/08/14 05:57:01;;;;;;;;;14.00;13.25;;;;;22.85;53.10;100985.91;5032400;28;8833;-67
2022/08/14 05:59:27;;;;;;;;;20.00;17.75;;;;;22.86;53.29;100984.78;5032971;28;9626;-67
2022/08/14 06:02:02;;;;;;;;;20.50;19.25;;;;;22.86;53.10;100983.97;5043756;28;8910;-66
2022/08/14 06:04:31;;;;;;;;;14.25;13.50;;;;;22.84;53.02;100994.38;5045199;28;8829;-66
2022/08/14 06:06:58;;;;;;;;;12.50;11.25;;;;;22.85;53.16;100985.91;5028853;28;8860;-67
2022/08/14 06:09:24;;;;;;;;;11.00;11.00;;;;;22.95;53.02;100993.34;5033288;28;8837;-66
2022/08/14 06:11:51;;;;;;;;;17.00;15.50;;;;;23.01;53.14;100986.75;5033690;28;8849;-65
2022/08/14 06:14:19;;;;;;;;;13.25;13.00;;;;;23.09;52.96;100979.88;5032851;28;8817;-64
2022/08/14 06:16:50;;;;;;;;;12.00;12.00;;;;;23.18;52.91;100989.25;5031357;28;8857;-67
2022/08/14 06:19:19;;;;;;;;;17.00;15.75;;;;;23.21;52.54;100985.91;5027019;28;8955;-67
2022/08/14 06:21:48;;;;;;;;;21.00;17.50;;;;;23.27;52.51;100986.75;5032333;28;8837;-64
2022/08/14 06:24:25;;;;;;;;;13.75;11.50;;;;;23.32;52.38;100986.75;5036376;28;8840;-64
2022/08/14 06:26:52;;;;;;;;;21.50;18.00;;;;;23.32;52.25;100992.25;5032447;28;9010;-64
2022/08/14 06:29:22;;;;;;;;;13.25;13.25;;;;;23.33;52.24;100991.94;5034263;28;8844;-66
2022/08/14 06:31:48;;;;;;;;;15.75;15.75;;;;;23.33;52.01;100993.88;5019253;28;8859;-67
2022/08/14 06:34:25;;;;;;;;;12.75;9.00;;;;;23.34;51.80;100988.13;5016380;28;8827;-64
2022/08/14 06:37:12;;;;;;;;;16.50;16.50;;;;;23.27;51.80;100987.56;5035528;28;8807;-65
2022/08/14 06:39:42;;;;;;;;;20.75;19.00;;;;;23.22;52.45;100992.25;5046189;28;8951;-64
2022/08/14 06:42:09;;;;;;;;;15.00;15.00;;;;;23.26;52.45;100987.88;5028371;28;9629;-65
2022/08/14 06:44:56;;;;;;;;;17.50;17.50;;;;;23.29;52.60;100987.28;5040785;28;8835;-65
2022/08/14 06:47:23;;;;;;;;;13.25;13.25;;;;;23.31;52.35;100983.19;5031542;28;9098;-65
2022/08/14 06:49:50;;;;;;;;;14.00;12.75;;;;;23.28;52.65;100991.97;5023032;28;8856;-65
2022/08/14 06:52:23;;;;;;;;;19.75;17.50;;;;;23.23;52.84;100989.22;5031643;28;8813;-64
2022/08/14 06:54:50;;;;;;;;;14.50;14.25;;;;;23.27;52.82;100992.25;5031493;28;8840;-65
2022/08/14 06:57:17;;;;;;;;;18.50;16.75;;;;;23.27;52.88;100995.00;5022717;28;8860;-65
2022/08/14 06:59:47;;;;;;;;;16.50;14.75;;;;;23.31;52.70;100988.66;5031322;28;8825;-65
2022/08/14 07:07:49;;;;;;;;;14.00;14.00;;;;;23.45;52.51;100983.44;5029028;28;8877;-65
2022/08/14 07:10:16;;;;;;;;;17.25;15.75;;;;;23.48;52.46;100980.13;5030446;28;8845;-64
2022/08/14 07:12:43;;;;;;;;;14.50;11.00;;;;;23.51;52.12;100976.84;5031128;28;9550;-65
2022/08/14 07:15:30;;;;;;;;;18.75;18.50;;;;;23.54;52.05;100972.72;5032399;28;8860;-64
2022/08/14 07:17:59;;;;;;;;;16.75;16.75;;;;;23.53;52.18;100969.13;5010800;28;8851;-65
2022/08/14 07:20:27;;;;;;;;;14.75;14.50;;;;;23.52;51.91;100967.50;5017451;28;8939;-64
2022/08/14 07:22:59;;;;;;;;;16.00;14.50;;;;;23.59;52.11;100972.72;5031463;28;8849;-64
2022/08/14 07:25:38;;;;;;;;;16.25;15.50;;;;;23.65;51.79;100975.19;5031541;28;8941;-64
2022/08/14 07:28:13;;;;;;;;;17.25;14.50;;;;;23.72;51.41;100974.06;5031725;28;8846;-66
2022/08/14 07:30:46;;;;;;;;;18.00;17.00;;;;;23.80;51.38;100968.00;5014202;28;8844;-66
2022/08/14 07:33:19;;;;;;;;;14.25;14.25;;;;;23.85;51.25;100974.31;5045373;28;8847;-65
2022/08/14 07:35:56;;;;;;;;;16.00;15.50;;;;;23.89;50.85;100960.81;5039053;28;8851;-64
2022/08/14 07:38:26;;;;;;;;;18.50;16.00;;;;;23.91;50.96;100958.63;5024955;28;8956;-65
2022/08/14 07:40:59;;;;;;;;;17.50;15.75;;;;;23.93;50.47;100964.66;5029861;28;8860;-65
2022/08/14 07:43:25;;;;;;;;;16.50;16.25;;;;;23.98;50.31;100953.63;5031388;28;8837;-65
2022/08/14 07:45:52;;;;;;;;;15.25;12.00;;;;;24.05;50.26;100956.09;5031281;28;8833;-68
2022/08/14 07:48:20;;;;;;;;;16.00;16.00;;;;;24.09;50.44;100949.75;5031959;28;8841;-66
2022/08/14 07:50:51;;;;;;;;;15.50;13.00;;;;;24.14;50.46;100946.13;5031183;28;8821;-66
2022/08/14 07:53:21;;;;;;;;;17.75;16.25;;;;;24.15;50.25;100951.38;5030010;28;8852;-66
2022/08/14 07:55:48;;;;;;;;;14.50;13.75;;;;;24.21;49.99;100960.41;5029454;28;9884;-66
2022/08/14 07:58:35;;;;;;;;;20.25;19.25;;;;;24.29;49.44;100965.31;5030748;28;8926;-66
2022/08/14 08:01:17;;;;;;;;;20.00;18.00;;;;;24.34;49.25;100959.78;5029721;28;9598;-65
2022/08/14 08:03:48;;;;;;;;;16.25;16.25;;;;;24.37;49.53;100959.22;5031040;28;8825;-65
2022/08/14 08:06:27;;;;;;;;;15.25;15.25;;;;;24.40;49.30;100966.94;5030740;28;8830;-65
2022/08/14 08:08:56;;;;;;;;;13.75;13.75;;;;;24.45;48.98;100957.84;5030982;28;8802;-65
2022/08/14 08:11:31;;;;;;;;;16.75;14.25;;;;;24.51;49.39;100953.13;5030664;28;8840;-65
2022/08/14 08:14:06;;;;;;;;;14.50;14.50;;;;;24.53;49.40;100951.75;5031661;28;8831;-66
2022/08/14 08:16:46;;;;;;;;;12.25;12.25;;;;;24.61;49.29;100953.88;5028095;28;8853;-66
2022/08/14 08:19:12;;;;;;;;;24.00;20.50;;;;;24.66;48.75;100947.53;5013205;28;8955;-66
2022/08/14 08:21:39;;;;;;;;;17.50;17.50;;;;;24.67;48.63;100946.41;5013226;28;8841;-66
2022/08/14 08:24:10;;;;;;;;;16.25;15.75;;;;;24.71;48.37;100941.97;5031249;28;8825;-65
2022/08/14 08:26:40;;;;;;;;;14.75;13.50;;;;;24.77;48.47;100937.28;5032435;28;9021;-66
2022/08/14 08:29:08;;;;;;;;;20.50;17.75;;;;;24.77;48.47;100929.00;5023274;28;8864;-65
2022/08/14 08:31:49;;;;;;;;;16.00;15.75;;;;;24.80;48.82;100928.44;5029742;28;9023;-66
2022/08/14 08:34:18;;;;;;;;;15.50;14.50;;;;;24.88;48.89;100928.66;5027838;28;8847;-65
2022/08/14 08:36:49;;;;;;;;;18.00;17.25;;;;;24.95;48.69;100930.22;5026559;28;8895;-65
2022/08/14 08:39:15;;;;;;;;;18.75;18.50;;;;;25.02;47.96;100923.28;5032627;28;8896;-65
2022/08/14 08:41:48;;;;;;;;;16.75;15.75;;;;;25.05;48.08;100908.13;5030306;28;9524;-65
2022/08/14 08:44:21;;;;;;;;;17.25;17.25;;;;;25.12;48.37;100905.88;5028769;28;9569;-65
2022/08/14 08:47:04;;;;;;;;;21.25;21.00;;;;;25.18;47.39;100912.97;5031603;28;8842;-66
2022/08/14 08:49:41;;;;;;;;;17.25;17.25;;;;;25.23;47.97;100912.09;5030100;28;8849;-66
2022/08/14 08:52:15;;;;;;;;;16.75;16.25;;;;;25.32;49.43;100913.09;5034387;28;8817;-65
2022/08/14 08:54:54;;;;;;;;;15.00;13.25;;;;;25.36;49.97;100915.00;5035205;28;8964;-67
2022/08/14 08:57:21;;;;;;;;;19.50;19.25;;;;;25.42;49.89;100921.28;5027611;28;8897;-70
2022/08/14 08:59:49;;;;;;;;;18.00;16.25;;;;;25.45;50.14;100922.63;5032298;28;9607;-65
2022/08/14 09:02:21;;;;;;;;;19.50;19.00;;;;;25.46;50.10;100927.84;5034329;28;8845;-66
2022/08/14 09:04:48;;;;;;;;;18.75;18.75;;;;;25.49;49.99;100921.75;5034130;28;8817;-65
2022/08/14 09:07:25;;;;;;;;;17.25;16.75;;;;;25.55;50.14;100914.25;5033727;28;8813;-65
2022/08/14 09:09:55;;;;;;;;;21.25;21.25;;;;;25.62;50.68;100915.53;5034534;28;9580;-66
2022/08/14 09:12:30;;;;;;;;;16.50;16.00;;;;;25.69;50.62;100917.13;5026051;28;8841;-65
2022/08/14 09:15:08;;;;;;;;;21.75;20.50;;;;;25.76;50.33;100909.31;5030261;28;8839;-65
2022/08/14 09:17:39;;;;;;;;;20.25;19.25;;;;;25.82;50.28;100914.50;5030460;28;8963;-66
2022/08/14 09:20:09;;;;;;;;;17.25;17.00;;;;;25.87;50.18;100903.41;5015855;28;8851;-66
2022/08/14 09:22:41;;;;;;;;;18.75;17.75;;;;;25.88;49.53;100910.56;5015682;28;8941;-65
2022/08/14 09:25:15;;;;;;;;;21.75;21.25;;;;;25.89;49.82;100903.13;5026342;28;8821;-65
2022/08/14 09:27:41;;;;;;;;;19.00;19.00;;;;;25.95;49.53;100903.88;5020504;28;8911;-66
2022/08/14 09:30:09;;;;;;;;;22.00;16.25;;;;;25.97;49.40;100908.00;5032801;28;8919;-66
2022/08/14 09:33:06;;;;;;;;;22.25;21.25;;;;;26.00;49.14;100903.78;5031780;28;9292;-65
2022/08/14 09:36:07;;;;;;;;;21.75;21.00;;;;;26.03;49.35;100903.22;5014037;28;8823;-65
2022/08/14 09:39:04;;;;;;;;;20.50;20.25;;;;;26.04;49.12;100900.16;5039677;28;8798;-64
2022/08/14 09:42:10;;;;;;;;;19.50;19.50;;;;;26.13;48.91;100886.53;5012519;28;8835;-65
2022/08/14 09:45:11;;;;;;;;;18.00;17.50;;;;;26.22;48.30;100892.19;5034068;28;9621;-66
2022/08/14 09:47:49;;;;;;;;;19.75;19.75;;;;;26.31;47.86;100879.38;5032045;28;8799;-65
2022/08/14 09:50:20;;;;;;;;;22.00;20.00;;;;;26.22;47.87;100879.22;5031046;28;8825;-66
2022/08/14 09:53:03;;;;;;;;;17.00;17.00;;;;;26.27;48.65;100870.84;5032910;28;8825;-65
2022/08/14 09:55:33;;;;;;;;;18.25;17.75;;;;;26.41;47.32;100870.91;5031459;28;8950;-66
2022/08/14 09:58:10;;;;;;;;;20.25;18.25;;;;;26.54;47.10;100861.09;5031913;28;8817;-65
2022/08/14 10:00:49;;;;;;;;;26.50;24.75;;;;;26.65;47.35;100867.25;5032543;28;8844;-66
2022/08/14 10:03:32;;;;;;;;;15.75;15.75;;;;;26.74;46.39;100862.69;5032787;28;8968;-65
2022/08/14 10:06:20;;;;;;;;;20.00;20.00;;;;;26.76;46.88;100857.69;5032926;28;8848;-66
2022/08/14 10:08:53;;;;;;;;;21.50;21.00;;;;;26.70;46.88;100851.44;5033215;28;9638;-66
2022/08/14 10:11:28;;;;;;;;;21.00;21.00;;;;;26.78;46.33;100855.44;5009859;28;8829;-66
2022/08/14 10:14:15;;;;;;;;;19.75;19.75;;;;;26.76;46.40;100847.47;5030674;28;8907;-65
2022/08/14 10:17:01;;;;;;;;;20.50;18.00;;;;;26.76;46.64;100846.66;5010140;28;8935;-65
2022/08/14 10:19:30;;;;;;;;;20.00;19.00;;;;;26.81;46.34;100846.53;5028384;28;8817;-65
2022/08/14 10:22:07;;;;;;;;;19.75;18.25;;;;;26.86;45.89;100833.47;5032514;28;8857;-64
2022/08/14 10:24:53;;;;;;;;;19.00;19.00;;;;;26.96;45.57;100828.88;5030130;28;8881;-65
2022/08/14 10:27:22;;;;;;;;;17.75;17.00;;;;;27.02;45.45;100825.75;5034769;28;8835;-65
2022/08/14 10:29:51;;;;;;;;;15.75;15.75;;;;;27.06;44.98;100823.16;5022542;28;8823;-65
2022/08/14 10:32:18;;;;;;;;;20.75;20.50;;;;;27.11;45.07;100832.22;5018889;28;8824;-64
2022/08/14 10:35:05;;;;;;;;;19.00;16.75;;;;;27.08;44.17;100824.50;5016093;28;8883;-66
2022/08/14 10:37:50;;;;;;;;;16.50;16.00;;;;;27.25;43.39;100832.22;5028743;28;8959;-66
2022/08/14 10:40:26;;;;;;;;;19.00;17.50;;;;;27.41;42.68;100813.38;5032616;28;9546;-66
2022/08/14 10:43:24;;;;;;;;;14.50;14.50;;;;;27.45;42.48;100810.81;5023518;28;8804;-66
2022/08/14 10:45:57;;;;;;;;;15.75;15.50;;;;;27.45;42.00;100817.16;5029935;28;8959;-66
2022/08/14 10:49:05;;;;;;;;;17.75;16.75;;;;;27.39;41.49;100815.66;5030588;28;8843;-66
2022/08/14 10:51:35;;;;;;;;;15.50;14.75;;;;;27.47;41.08;100809.41;5031174;28;8825;-66
2022/08/14 10:54:09;;;;;;;;;17.25;17.25;;;;;27.57;40.92;100803.63;5032483;28;8840;-67
2022/08/14 10:57:17;;;;;;;;;18.50;18.00;;;;;27.56;41.23;100809.50;5033159;28;8829;-65
2022/08/14 10:59:48;;;;;;;;;20.00;18.00;;;;;27.68;40.52;100807.00;5031932;28;8976;-66
2022/08/14 11:02:20;;;;;;;;;13.00;13.00;;;;;27.76;40.07;100803.53;5030357;28;8956;-67
2022/08/14 11:05:13;;;;;;;;;16.25;16.25;;;;;27.85;39.69;100804.44;5026870;28;8821;-67
2022/08/14 11:07:53;;;;;;;;;15.75;15.75;;;;;27.91;40.12;100796.81;5027715;28;8825;-65
2022/08/14 11:10:39;;;;;;;;;14.25;12.75;;;;;28.01;40.95;100793.03;5031755;28;8833;-69
2022/08/14 11:13:09;;;;;;;;;18.25;18.00;;;;;28.01;39.44;100785.53;5031587;28;8821;-66
2022/08/14 11:15:35;;;;;;;;;16.00;16.00;;;;;27.96;40.50;100785.66;5031272;28;8855;-69
2022/08/14 11:18:04;;;;;;;;;17.00;16.25;;;;;28.03;40.56;100794.31;5030677;28;8915;-68
2022/08/14 11:20:31;;;;;;;;;21.75;20.75;;;;;28.13;40.73;100779.44;5030380;28;8829;-67
2022/08/14 11:23:00;;;;;;;;;18.50;18.00;;;;;28.26;39.93;100791.59;5030883;28;8920;-68
2022/08/14 11:25:30;;;;;;;;;16.00;16.00;;;;;28.30;39.30;100790.63;5030814;28;8837;-68
2022/08/14 11:28:11;;;;;;;;;17.00;16.25;;;;;28.39;39.24;100787.13;5023451;28;8895;-68
2022/08/14 11:30:47;;;;;;;;;16.25;16.25;;;;;28.44;39.69;100785.09;5030436;28;8837;-68
2022/08/14 11:33:28;;;;;;;;;18.50;15.50;;;;;28.49;39.92;100782.19;5030858;28;8830;-68
2022/08/14 11:35:59;;;;;;;;;18.50;18.25;;;;;28.59;39.61;100787.44;5030265;28;8841;-68
2022/08/14 11:38:35;;;;;;;;;14.25;13.50;;;;;28.64;38.36;100778.16;5030616;28;8879;-68
2022/08/14 11:41:04;;;;;;;;;14.75;14.75;;;;;28.75;37.73;100781.50;5030461;28;9667;-68
2022/08/14 11:43:44;;;;;;;;;16.00;16.00;;;;;28.74;38.13;100780.69;5030591;28;8821;-69
2022/08/14 11:46:23;;;;;;;;;17.00;15.25;;;;;28.78;37.73;100778.91;5027690;28;8825;-68
2022/08/14 11:49:02;;;;;;;;;14.50;14.50;;;;;28.85;37.57;100769.34;5029225;28;9247;-67
2022/08/14 11:51:31;;;;;;;;;18.25;16.75;;;;;28.85;37.53;100769.34;5029399;28;9576;-67
2022/08/14 11:54:17;;;;;;;;;15.00;14.75;;;;;28.93;37.41;100772.16;5029916;28;8833;-67
2022/08/14 11:56:48;;;;;;;;;19.50;17.75;;;;;28.96;37.77;100765.13;5028699;28;8845;-68
2022/08/14 11:59:18;;;;;;;;;15.25;15.25;;;;;29.01;37.10;100763.06;5029691;28;8822;-67
2022/08/14 12:01:51;;;;;;;;;17.75;17.50;;;;;29.12;36.38;100763.59;5028053;28;9663;-67
2022/08/14 12:04:20;;;;;;;;;15.25;15.25;;;;;29.18;36.66;100754.00;5025565;28;8821;-67
2022/08/14 12:07:00;;;;;;;;;16.00;14.50;;;;;29.20;36.91;100750.91;5027267;28;8922;-68